Time,TemperatureF,DewpointF,PressureIn,WindDirection,WindDirectionDegrees,WindSpeedMPH,WindSpeedGustMPH,Humidity,HourlyPrecipIn,Conditions,Clouds,dailyrainin,SoftwareType,DateUTC
2013-10-21 00:00:00,45.0,36.5,30.06,WSW,238,0.0,0.0,72,0.00,,,0.00,Wunderground v.1.12,2013-10-21 04:00:00,
2013-10-21 00:01:00,45.0,36.2,30.06,WSW,238,0.0,0.0,71,0.00,,,0.00,Wunderground v.1.12,2013-10-21 04:01:00,
2013-10-21 00:02:00,45.1,36.3,30.06,WSW,238,0.0,0.0,71,0.00,,,0.00,Wunderground v.1.12,2013-10-21 04:02:00,
2013-10-21 00:04:00,45.1,36.3,30.06,WSW,238,0.0,0.0,71,0.00,,,0.00,Wunderground v.1.12,2013-10-21 04:04:00,
2013-10-21 00:06:00,45.1,36.3,30.06,WSW,238,0.0,0.0,71,0.00,,,0.00,Wunderground v.1.12,2013-10-21 04:06:00,
2013-10-21 00:07:00,45.2,36.4,30.06,WSW,238,0.0,0.0,71,0.00,,,0.00,Wunderground v.1.12,2013-10-21 04:07:00,
2013-10-21 00:12:00,45.3,36.4,30.06,WSW,238,0.0,0.0,71,0.00,,,0.00,Wunderground v.1.12,2013-10-21 04:12:00,
2013-10-21 00:19:00,45.3,36.8,30.06,WSW,238,0.0,0.0,72,0.00,,,0.00,Wunderground v.1.12,2013-10-21 04:19:00,
2013-10-21 00:24:00,45.2,36.7,30.06,WSW,238,0.0,0.0,72,0.00,,,0.00,Wunderground v.1.12,2013-10-21 04:24:00,
2013-10-21 00:29:00,45.1,36.6,30.06,WSW,238,0.0,0.0,72,0.00,,,0.00,Wunderground v.1.12,2013-10-21 04:29:00,
2013-10-21 00:34:00,44.9,37.1,30.06,WSW,238,0.0,0.0,74,0.00,,,0.00,Wunderground v.1.12,2013-10-21 04:34:00,
2013-10-21 00:40:00,44.6,37.2,30.06,WSW,238,0.0,0.0,75,0.00,,,0.00,Wunderground v.1.12,2013-10-21 04:40:00,
2013-10-21 00:46:00,44.3,37.5,30.06,WSW,238,0.0,0.0,77,0.00,,,0.00,Wunderground v.1.12,2013-10-21 04:46:00,
2013-10-21 00:51:00,43.9,36.8,30.06,WSW,238,0.0,0.0,76,0.00,,,0.00,Wunderground v.1.12,2013-10-21 04:51:00,
2013-10-21 00:57:00,43.9,36.8,30.06,WSW,238,0.0,0.0,76,0.00,,,0.00,Wunderground v.1.12,2013-10-21 04:57:00,
2013-10-21 01:04:00,43.8,36.7,30.06,WSW,238,0.0,0.0,76,0.00,,,0.00,Wunderground v.1.12,2013-10-21 05:04:00,
2013-10-21 01:09:00,43.9,36.5,30.05,WSW,238,0.0,0.0,75,0.00,,,0.00,Wunderground v.1.12,2013-10-21 05:09:00,
2013-10-21 01:14:00,44.0,36.6,30.05,WSW,238,0.0,0.0,75,0.00,,,0.00,Wunderground v.1.12,2013-10-21 05:14:00,
2013-10-21 01:19:00,44.1,36.7,30.05,WSW,238,0.0,0.0,75,0.00,,,0.00,Wunderground v.1.12,2013-10-21 05:19:00,
2013-10-21 01:25:00,44.2,36.4,30.06,WSW,238,0.0,0.0,74,0.00,,,0.00,Wunderground v.1.12,2013-10-21 05:25:00,
2013-10-21 01:31:00,44.2,36.8,30.06,WSW,238,0.0,0.0,75,0.00,,,0.00,Wunderground v.1.12,2013-10-21 05:31:00,
2013-10-21 01:37:00,44.2,36.8,30.06,WSW,238,0.0,0.0,75,0.00,,,0.00,Wunderground v.1.12,2013-10-21 05:37:00,
2013-10-21 01:42:00,44.1,36.7,30.06,WSW,238,0.0,0.0,75,0.00,,,0.00,Wunderground v.1.12,2013-10-21 05:42:00,
2013-10-21 01:49:00,44.1,36.7,30.06,WSW,238,0.0,0.0,75,0.00,,,0.00,Wunderground v.1.12,2013-10-21 05:49:00,
2013-10-21 01:54:00,44.1,36.7,30.06,WSW,238,0.0,0.0,75,0.00,,,0.00,Wunderground v.1.12,2013-10-21 05:54:00,
2013-10-21 01:59:00,44.0,36.9,30.06,WSW,238,0.0,0.0,76,0.00,,,0.00,Wunderground v.1.12,2013-10-21 05:59:00,
2013-10-21 02:04:00,44.0,36.9,30.06,WSW,238,0.0,0.0,76,0.00,,,0.00,Wunderground v.1.12,2013-10-21 06:04:00,
2013-10-21 02:09:00,44.1,37.0,30.06,WSW,238,0.0,0.0,76,0.00,,,0.00,Wunderground v.1.12,2013-10-21 06:09:00,
2013-10-21 02:14:00,44.5,37.1,30.06,WSW,238,0.0,0.0,75,0.00,,,0.00,Wunderground v.1.12,2013-10-21 06:14:00,
2013-10-21 02:19:00,44.3,37.5,30.06,WSW,238,0.0,0.0,77,0.00,,,0.00,Wunderground v.1.12,2013-10-21 06:19:00,
2013-10-21 02:24:00,44.1,37.7,30.07,WSW,238,0.0,0.0,78,0.00,,,0.00,Wunderground v.1.12,2013-10-21 06:24:00,
2013-10-21 02:30:00,43.7,37.3,30.07,WSW,238,0.0,0.0,78,0.00,,,0.00,Wunderground v.1.12,2013-10-21 06:30:00,
2013-10-21 02:35:00,43.5,37.1,30.07,WSW,238,0.0,0.0,78,0.00,,,0.00,Wunderground v.1.12,2013-10-21 06:35:00,
2013-10-21 02:40:00,43.2,36.8,30.07,WSW,238,0.0,0.0,78,0.00,,,0.00,Wunderground v.1.12,2013-10-21 06:40:00,
2013-10-21 02:45:00,43.3,37.2,30.07,WSW,238,0.0,0.0,79,0.00,,,0.00,Wunderground v.1.12,2013-10-21 06:45:00,
2013-10-21 02:50:00,43.2,37.4,30.07,WSW,238,0.0,0.0,80,0.00,,,0.00,Wunderground v.1.12,2013-10-21 06:50:00,
2013-10-21 02:55:00,43.1,37.3,30.07,WSW,238,0.0,0.0,80,0.00,,,0.00,Wunderground v.1.12,2013-10-21 06:55:00,
2013-10-21 03:00:00,43.0,37.6,30.07,WSW,238,0.0,0.0,81,0.00,,,0.00,Wunderground v.1.12,2013-10-21 07:00:00,
2013-10-21 03:05:00,42.9,37.2,30.07,WSW,238,0.0,0.0,80,0.00,,,0.00,Wunderground v.1.12,2013-10-21 07:05:00,
2013-10-21 03:10:00,42.9,37.5,30.07,WSW,238,0.0,0.0,81,0.00,,,0.00,Wunderground v.1.12,2013-10-21 07:10:00,
2013-10-21 03:15:00,42.8,37.4,30.07,WSW,238,0.0,0.0,81,0.00,,,0.00,Wunderground v.1.12,2013-10-21 07:15:00,
2013-10-21 03:20:00,43.2,37.8,30.07,SW,229,0.0,0.0,81,0.00,,,0.00,Wunderground v.1.12,2013-10-21 07:20:00,
2013-10-21 03:26:00,43.7,37.6,30.07,SW,229,0.0,0.0,79,0.00,,,0.00,Wunderground v.1.12,2013-10-21 07:26:00,
2013-10-21 03:31:00,43.8,37.7,30.07,SW,229,0.0,0.0,79,0.00,,,0.00,Wunderground v.1.12,2013-10-21 07:31:00,
2013-10-21 03:36:00,44.1,37.7,30.07,SW,229,0.0,0.0,78,0.00,,,0.00,Wunderground v.1.12,2013-10-21 07:36:00,
2013-10-21 03:41:00,44.4,37.6,30.07,SW,229,0.0,1.0,77,0.00,,,0.00,Wunderground v.1.12,2013-10-21 07:41:00,
2013-10-21 03:46:00,44.4,37.0,30.07,SW,229,0.0,1.0,75,0.00,,,0.00,Wunderground v.1.12,2013-10-21 07:46:00,
2013-10-21 03:51:00,44.8,38.0,30.08,SW,229,0.0,0.0,77,0.00,,,0.00,Wunderground v.1.12,2013-10-21 07:51:00,
2013-10-21 03:56:00,44.8,38.4,30.08,SW,229,1.0,1.0,78,0.00,,,0.00,Wunderground v.1.12,2013-10-21 07:56:00,
2013-10-21 04:01:00,44.8,37.4,30.08,SW,227,0.0,1.0,75,0.00,,,0.00,Wunderground v.1.12,2013-10-21 08:01:00,
2013-10-21 04:06:00,44.7,37.3,30.08,SW,228,0.0,1.0,75,0.00,,,0.00,Wunderground v.1.12,2013-10-21 08:06:00,
2013-10-21 04:11:00,44.8,37.4,30.08,SW,228,0.0,0.0,75,0.00,,,0.00,Wunderground v.1.12,2013-10-21 08:11:00,
2013-10-21 04:17:00,45.1,37.3,30.08,SW,219,0.0,1.0,74,0.00,,,0.00,Wunderground v.1.12,2013-10-21 08:17:00,
2013-10-21 04:22:00,45.1,38.3,30.08,SW,224,0.0,0.0,77,0.00,,,0.00,Wunderground v.1.12,2013-10-21 08:22:00,
2013-10-21 04:27:00,44.9,37.5,30.08,SW,228,0.0,0.0,75,0.00,,,0.00,Wunderground v.1.12,2013-10-21 08:27:00,
2013-10-21 04:32:00,44.9,37.5,30.08,SW,228,0.0,0.0,75,0.00,,,0.00,Wunderground v.1.12,2013-10-21 08:32:00,
2013-10-21 04:37:00,44.6,38.2,30.08,SW,225,1.0,1.0,78,0.00,,,0.00,Wunderground v.1.12,2013-10-21 08:37:00,
2013-10-21 04:42:00,44.8,37.0,30.08,SW,227,0.0,0.0,74,0.00,,,0.00,Wunderground v.1.12,2013-10-21 08:42:00,
2013-10-21 04:47:00,44.8,37.7,30.08,SW,230,0.0,1.0,76,0.00,,,0.00,Wunderground v.1.12,2013-10-21 08:47:00,
2013-10-21 04:52:00,45.0,37.2,30.08,SW,230,0.0,0.0,74,0.00,,,0.00,Wunderground v.1.12,2013-10-21 08:52:00,
2013-10-21 04:57:00,44.8,37.4,30.08,SW,232,0.0,1.0,75,0.00,,,0.00,Wunderground v.1.12,2013-10-21 08:57:00,
2013-10-21 05:02:00,45.0,37.2,30.08,SW,232,0.0,0.0,74,0.00,,,0.00,Wunderground v.1.12,2013-10-21 09:02:00,
2013-10-21 05:07:00,45.3,36.8,30.09,SW,227,0.0,0.0,72,0.00,,,0.00,Wunderground v.1.12,2013-10-21 09:07:00,
2013-10-21 05:12:00,45.5,37.0,30.09,SW,227,0.0,0.0,72,0.00,,,0.00,Wunderground v.1.12,2013-10-21 09:12:00,
2013-10-21 05:18:00,45.5,37.3,30.09,SW,228,0.0,1.0,73,0.00,,,0.00,Wunderground v.1.12,2013-10-21 09:18:00,
2013-10-21 05:23:00,45.2,37.1,30.09,SW,229,0.0,1.0,73,0.00,,,0.00,Wunderground v.1.12,2013-10-21 09:23:00,
2013-10-21 05:28:00,45.1,37.0,30.09,SW,227,0.0,0.0,73,0.00,,,0.00,Wunderground v.1.12,2013-10-21 09:28:00,
2013-10-21 05:34:00,44.5,38.1,30.09,SW,229,0.0,0.0,78,0.00,,,0.00,Wunderground v.1.12,2013-10-21 09:34:00,
2013-10-21 05:39:00,43.9,37.8,30.09,SW,229,0.0,0.0,79,0.00,,,0.00,Wunderground v.1.12,2013-10-21 09:39:00,
2013-10-21 05:44:00,43.6,38.2,30.09,SW,229,0.0,0.0,81,0.00,,,0.00,Wunderground v.1.12,2013-10-21 09:44:00,
2013-10-21 05:49:00,43.1,38.0,30.09,SW,229,0.0,0.0,82,0.00,,,0.00,Wunderground v.1.12,2013-10-21 09:49:00,
2013-10-21 05:55:00,43.1,38.0,30.10,SW,236,0.0,0.0,82,0.00,,,0.00,Wunderground v.1.12,2013-10-21 09:55:00,
2013-10-21 05:59:00,42.9,37.8,30.10,SW,236,0.0,0.0,82,0.00,,,0.00,Wunderground v.1.12,2013-10-21 09:59:00,
2013-10-21 06:04:00,42.6,37.5,30.10,SW,236,0.0,0.0,82,0.00,,,0.00,Wunderground v.1.12,2013-10-21 10:04:00,
2013-10-21 06:09:00,42.5,37.7,30.11,SW,236,0.0,0.0,83,0.00,,,0.00,Wunderground v.1.12,2013-10-21 10:09:00,
2013-10-21 06:15:00,42.6,37.5,30.11,SW,236,0.0,0.0,82,0.00,,,0.00,Wunderground v.1.12,2013-10-21 10:15:00,
2013-10-21 06:19:00,42.4,37.3,30.11,SW,236,0.0,0.0,82,0.00,,,0.00,Wunderground v.1.12,2013-10-21 10:19:00,
2013-10-21 06:25:00,42.4,37.6,30.11,SW,236,0.0,0.0,83,0.00,,,0.00,Wunderground v.1.12,2013-10-21 10:25:00,
2013-10-21 06:30:00,42.3,37.2,30.11,SW,236,0.0,0.0,82,0.00,,,0.00,Wunderground v.1.12,2013-10-21 10:30:00,
2013-10-21 06:35:00,42.1,37.6,30.11,SW,236,0.0,0.0,84,0.00,,,0.00,Wunderground v.1.12,2013-10-21 10:35:00,
2013-10-21 06:40:00,41.9,37.1,30.11,SW,236,0.0,0.0,83,0.00,,,0.00,Wunderground v.1.12,2013-10-21 10:40:00,
2013-10-21 06:45:00,41.7,37.5,30.11,SW,236,0.0,0.0,85,0.00,,,0.00,Wunderground v.1.12,2013-10-21 10:45:00,
2013-10-21 06:50:00,41.5,37.3,30.11,SW,236,0.0,0.0,85,0.00,,,0.00,Wunderground v.1.12,2013-10-21 10:50:00,
2013-10-21 06:55:00,41.3,37.1,30.11,SW,236,0.0,0.0,85,0.00,,,0.00,Wunderground v.1.12,2013-10-21 10:55:00,
2013-10-21 07:00:00,41.2,37.0,30.11,SW,236,0.0,0.0,85,0.00,,,0.00,Wunderground v.1.12,2013-10-21 11:00:00,
2013-10-21 07:05:00,41.1,37.5,30.11,SW,236,0.0,0.0,87,0.00,,,0.00,Wunderground v.1.12,2013-10-21 11:05:00,
2013-10-21 07:10:00,41.9,37.1,30.12,SW,236,0.0,0.0,83,0.00,,,0.00,Wunderground v.1.12,2013-10-21 11:10:00,
2013-10-21 07:15:00,42.6,37.8,30.12,SW,236,0.0,0.0,83,0.00,,,0.00,Wunderground v.1.12,2013-10-21 11:15:00,
2013-10-21 07:20:00,42.5,37.1,30.12,SW,236,0.0,0.0,81,0.00,,,0.00,Wunderground v.1.12,2013-10-21 11:20:00,
2013-10-21 07:25:00,42.4,37.9,30.12,SW,236,0.0,0.0,84,0.00,,,0.00,Wunderground v.1.12,2013-10-21 11:25:00,
2013-10-21 07:30:00,42.1,37.3,30.12,SW,236,0.0,0.0,83,0.00,,,0.00,Wunderground v.1.12,2013-10-21 11:30:00,
2013-10-21 07:36:00,42.0,36.9,30.12,SW,236,0.0,0.0,82,0.00,,,0.00,Wunderground v.1.12,2013-10-21 11:36:00,
2013-10-21 07:41:00,42.1,37.3,30.12,SW,236,0.0,0.0,83,0.00,,,0.00,Wunderground v.1.12,2013-10-21 11:41:00,
2013-10-21 07:46:00,42.2,37.4,30.12,SW,236,0.0,0.0,83,0.00,,,0.00,Wunderground v.1.12,2013-10-21 11:46:00,
2013-10-21 07:51:00,42.7,37.0,30.12,SW,236,0.0,0.0,80,0.00,,,0.00,Wunderground v.1.12,2013-10-21 11:51:00,
2013-10-21 07:56:00,43.3,37.2,30.12,SW,236,0.0,0.0,79,0.00,,,0.00,Wunderground v.1.12,2013-10-21 11:56:00,
2013-10-21 08:01:00,43.5,37.1,30.12,SW,236,0.0,0.0,78,0.00,,,0.00,Wunderground v.1.12,2013-10-21 12:01:00,
2013-10-21 08:06:00,43.5,38.1,30.13,SW,236,0.0,0.0,81,0.00,,,0.00,Wunderground v.1.12,2013-10-21 12:06:00,
2013-10-21 08:11:00,43.7,37.6,30.13,SW,236,0.0,0.0,79,0.00,,,0.00,Wunderground v.1.12,2013-10-21 12:11:00,
2013-10-21 08:16:00,44.1,38.0,30.13,SW,236,0.0,0.0,79,0.00,,,0.00,Wunderground v.1.12,2013-10-21 12:16:00,
2013-10-21 08:21:00,44.4,37.3,30.13,SW,236,0.0,0.0,76,0.00,,,0.00,Wunderground v.1.12,2013-10-21 12:21:00,
2013-10-21 08:26:00,44.8,37.4,30.13,SW,236,0.0,0.0,75,0.00,,,0.00,Wunderground v.1.12,2013-10-21 12:26:00,
2013-10-21 08:31:00,45.4,37.2,30.13,SW,236,0.0,0.0,73,0.00,,,0.00,Wunderground v.1.12,2013-10-21 12:31:00,
2013-10-21 08:36:00,46.0,37.1,30.13,SW,236,0.0,0.0,71,0.00,,,0.00,Wunderground v.1.12,2013-10-21 12:36:00,
2013-10-21 08:41:00,46.8,37.2,30.13,WSW,241,0.0,0.0,69,0.00,,,0.00,Wunderground v.1.12,2013-10-21 12:41:00,
2013-10-21 08:46:00,47.2,37.2,30.13,WSW,240,0.0,0.0,68,0.00,,,0.00,Wunderground v.1.12,2013-10-21 12:46:00,
2013-10-21 08:51:00,47.2,37.2,30.13,WSW,241,0.0,0.0,68,0.00,,,0.00,Wunderground v.1.12,2013-10-21 12:51:00,
2013-10-21 08:56:00,47.4,37.4,30.13,WSW,240,0.0,0.0,68,0.00,,,0.00,Wunderground v.1.12,2013-10-21 12:56:00,
2013-10-21 09:01:00,47.6,37.6,30.13,WSW,241,0.0,0.0,68,0.00,,,0.00,Wunderground v.1.12,2013-10-21 13:01:00,
2013-10-21 09:06:00,48.1,38.0,30.13,WSW,240,0.0,0.0,68,0.00,,,0.00,Wunderground v.1.12,2013-10-21 13:06:00,
2013-10-21 09:11:00,48.6,38.1,30.13,WSW,241,0.0,0.0,67,0.00,,,0.00,Wunderground v.1.12,2013-10-21 13:11:00,
2013-10-21 09:16:00,49.1,38.2,30.13,WSW,241,0.0,0.0,66,0.00,,,0.00,Wunderground v.1.12,2013-10-21 13:16:00,
2013-10-21 09:22:00,49.7,38.8,30.13,WSW,241,0.0,0.0,66,0.00,,,0.00,Wunderground v.1.12,2013-10-21 13:22:00,
2013-10-21 09:27:00,50.1,39.6,30.13,WSW,255,1.0,2.0,67,0.00,,,0.00,Wunderground v.1.12,2013-10-21 13:27:00,
2013-10-21 09:32:00,50.6,40.8,30.13,WSW,253,0.0,0.0,69,0.00,,,0.00,Wunderground v.1.12,2013-10-21 13:32:00,
2013-10-21 09:37:00,50.6,39.7,30.13,WSW,253,0.0,0.0,66,0.00,,,0.00,Wunderground v.1.12,2013-10-21 13:37:00,
2013-10-21 09:42:00,50.7,42.4,30.13,WSW,253,0.0,0.0,73,0.00,,,0.00,Wunderground v.1.12,2013-10-21 13:42:00,
2013-10-21 09:47:00,50.5,42.2,30.13,WSW,253,0.0,0.0,73,0.00,,,0.00,Wunderground v.1.12,2013-10-21 13:47:00,
2013-10-21 09:52:00,50.5,42.2,30.13,WSW,253,0.0,0.0,73,0.00,,,0.00,Wunderground v.1.12,2013-10-21 13:52:00,
2013-10-21 09:57:00,50.4,42.1,30.13,WSW,253,0.0,0.0,73,0.00,,,0.00,Wunderground v.1.12,2013-10-21 13:57:00,
2013-10-21 10:02:00,50.6,42.6,30.13,WSW,257,0.0,0.0,74,0.00,,,0.00,Wunderground v.1.12,2013-10-21 14:02:00,
2013-10-21 10:07:00,51.0,42.3,30.12,WSW,256,0.0,0.0,72,0.00,,,0.00,Wunderground v.1.12,2013-10-21 14:07:00,
2013-10-21 10:12:00,51.3,42.9,30.12,WSW,256,0.0,0.0,73,0.00,,,0.00,Wunderground v.1.12,2013-10-21 14:12:00,
2013-10-21 10:17:00,51.8,40.8,30.12,WSW,256,0.0,0.0,66,0.00,,,0.00,Wunderground v.1.12,2013-10-21 14:17:00,
2013-10-21 10:22:00,52.1,42.6,30.11,WSW,256,0.0,0.0,70,0.00,,,0.00,Wunderground v.1.12,2013-10-21 14:22:00,
2013-10-21 10:28:00,52.5,39.8,30.11,WSW,243,0.0,0.0,62,0.00,,,0.00,Wunderground v.1.12,2013-10-21 14:28:00,
2013-10-21 10:33:00,53.0,39.0,30.11,WSW,238,0.0,1.0,59,0.00,,,0.00,Wunderground v.1.12,2013-10-21 14:33:00,
2013-10-21 10:38:00,53.4,39.0,30.11,WSW,238,0.0,1.0,58,0.00,,,0.00,Wunderground v.1.12,2013-10-21 14:38:00,
2013-10-21 10:43:00,53.7,38.4,30.11,SW,224,0.0,0.0,56,0.00,,,0.00,Wunderground v.1.12,2013-10-21 14:43:00,
2013-10-21 10:48:00,53.9,38.6,30.11,WSW,238,0.0,1.0,56,0.00,,,0.00,Wunderground v.1.12,2013-10-21 14:48:00,
2013-10-21 10:53:00,54.2,38.8,30.11,WSW,239,0.0,0.0,56,0.00,,,0.00,Wunderground v.1.12,2013-10-21 14:53:00,
2013-10-21 10:58:00,54.5,37.2,30.11,SSW,207,1.0,1.0,52,0.00,,,0.00,Wunderground v.1.12,2013-10-21 14:58:00,
2013-10-21 11:03:00,54.8,38.5,30.11,WSW,254,0.0,0.0,54,0.00,,,0.00,Wunderground v.1.12,2013-10-21 15:03:00,
2013-10-21 11:09:00,55.3,37.0,30.11,SW,233,0.0,1.0,50,0.00,,,0.00,Wunderground v.1.12,2013-10-21 15:09:00,
2013-10-21 11:15:00,55.8,37.9,30.11,WSW,241,0.0,1.0,51,0.00,,,0.00,Wunderground v.1.12,2013-10-21 15:15:00,
2013-10-21 11:20:00,56.2,37.3,30.11,SW,220,1.0,2.0,49,0.00,,,0.00,Wunderground v.1.12,2013-10-21 15:20:00,
2013-10-21 11:25:00,56.6,39.2,30.11,WSW,251,0.0,1.0,52,0.00,,,0.00,Wunderground v.1.12,2013-10-21 15:25:00,
2013-10-21 11:30:00,56.7,37.7,30.11,SSW,213,1.0,2.0,49,0.00,,,0.00,Wunderground v.1.12,2013-10-21 15:30:00,
2013-10-21 11:35:00,56.9,37.4,30.11,SW,229,0.0,2.0,48,0.00,,,0.00,Wunderground v.1.12,2013-10-21 15:35:00,
2013-10-21 11:40:00,57.2,38.7,30.11,WSW,238,0.0,2.0,50,0.00,,,0.00,Wunderground v.1.12,2013-10-21 15:40:00,
2013-10-21 11:45:00,57.5,37.9,30.11,SW,224,0.0,1.0,48,0.00,,,0.00,Wunderground v.1.12,2013-10-21 15:45:00,
2013-10-21 11:50:00,57.8,38.2,30.11,WSW,245,0.0,1.0,48,0.00,,,0.00,Wunderground v.1.12,2013-10-21 15:50:00,
2013-10-21 11:55:00,58.0,38.9,30.10,SW,227,0.0,1.0,49,0.00,,,0.00,Wunderground v.1.12,2013-10-21 15:55:00,
2013-10-21 12:00:00,58.0,38.4,30.10,SW,229,0.0,2.0,48,0.00,,,0.00,Wunderground v.1.12,2013-10-21 16:00:00,
2013-10-21 12:05:00,58.1,38.5,30.10,WSW,256,0.0,0.0,48,0.00,,,0.00,Wunderground v.1.12,2013-10-21 16:05:00,
2013-10-21 12:10:00,58.5,38.3,30.10,SW,231,0.0,0.0,47,0.00,,,0.00,Wunderground v.1.12,2013-10-21 16:10:00,
2013-10-21 12:15:00,58.7,38.5,30.10,WSW,246,0.0,0.0,47,0.00,,,0.00,Wunderground v.1.12,2013-10-21 16:15:00,
2013-10-21 12:20:00,58.8,38.6,30.10,SW,230,0.0,0.0,47,0.00,,,0.00,Wunderground v.1.12,2013-10-21 16:20:00,
2013-10-21 12:25:00,59.0,39.3,30.09,SW,228,0.0,0.0,48,0.00,,,0.00,Wunderground v.1.12,2013-10-21 16:25:00,
2013-10-21 12:30:00,59.0,38.2,30.09,SW,228,0.0,0.0,46,0.00,,,0.00,Wunderground v.1.12,2013-10-21 16:30:00,
2013-10-21 12:35:00,59.2,39.0,30.08,WSW,250,0.0,2.0,47,0.00,,,0.00,Wunderground v.1.12,2013-10-21 16:35:00,
2013-10-21 12:40:00,59.1,38.9,30.08,SSW,201,0.0,1.0,47,0.00,,,0.00,Wunderground v.1.12,2013-10-21 16:40:00,
2013-10-21 12:46:00,59.3,39.1,30.08,SW,233,0.0,1.0,47,0.00,,,0.00,Wunderground v.1.12,2013-10-21 16:46:00,
2013-10-21 12:51:00,59.6,39.9,30.07,ESE,115,2.0,2.0,48,0.00,,,0.00,Wunderground v.1.12,2013-10-21 16:51:00,
2013-10-21 12:56:00,59.7,39.4,30.07,SW,219,0.0,1.0,47,0.00,,,0.00,Wunderground v.1.12,2013-10-21 16:56:00,
2013-10-21 13:01:00,60.0,39.1,30.07,WSW,252,1.0,1.0,46,0.00,,,0.00,Wunderground v.1.12,2013-10-21 17:01:00,
2013-10-21 13:06:00,60.3,38.9,30.06,SW,234,0.0,1.0,45,0.00,,,0.00,Wunderground v.1.12,2013-10-21 17:06:00,
2013-10-21 13:11:00,60.5,38.5,30.06,WSW,252,0.0,1.0,44,0.00,,,0.00,Wunderground v.1.12,2013-10-21 17:11:00,
2013-10-21 13:16:00,60.8,38.7,30.06,WSW,252,0.0,1.0,44,0.00,,,0.00,Wunderground v.1.12,2013-10-21 17:16:00,
2013-10-21 13:21:00,60.8,36.9,30.06,SW,225,0.0,1.0,41,0.00,,,0.00,Wunderground v.1.12,2013-10-21 17:21:00,
2013-10-21 13:26:00,61.1,37.2,30.06,West,269,1.0,2.0,41,0.00,,,0.00,Wunderground v.1.12,2013-10-21 17:26:00,
2013-10-21 13:31:00,61.0,37.1,30.06,WSW,250,0.0,1.0,41,0.00,,,0.00,Wunderground v.1.12,2013-10-21 17:31:00,
2013-10-21 13:36:00,60.9,37.6,30.05,WSW,252,0.0,1.0,42,0.00,,,0.00,Wunderground v.1.12,2013-10-21 17:36:00,
2013-10-21 13:41:00,60.8,37.5,30.05,WSW,242,0.0,2.0,42,0.00,,,0.00,Wunderground v.1.12,2013-10-21 17:41:00,
2013-10-21 13:46:00,60.9,37.6,30.05,WSW,244,1.0,3.0,42,0.00,,,0.00,Wunderground v.1.12,2013-10-21 17:46:00,
2013-10-21 13:51:00,61.2,37.9,30.04,SW,214,0.0,1.0,42,0.00,,,0.00,Wunderground v.1.12,2013-10-21 17:51:00,
2013-10-21 13:56:00,61.2,37.3,30.04,SW,225,0.0,1.0,41,0.00,,,0.00,Wunderground v.1.12,2013-10-21 17:56:00,
2013-10-21 14:02:00,61.2,37.3,30.04,WSW,253,0.0,1.0,41,0.00,,,0.00,Wunderground v.1.12,2013-10-21 18:02:00,
2013-10-21 14:07:00,61.3,37.4,30.03,WSW,240,0.0,2.0,41,0.00,,,0.00,Wunderground v.1.12,2013-10-21 18:07:00,
2013-10-21 14:12:00,61.5,38.2,30.03,WSW,246,0.0,0.0,42,0.00,,,0.00,Wunderground v.1.12,2013-10-21 18:12:00,
2013-10-21 14:17:00,61.7,38.4,30.03,West,268,1.0,2.0,42,0.00,,,0.00,Wunderground v.1.12,2013-10-21 18:17:00,
2013-10-21 14:22:00,61.5,37.6,30.03,ESE,112,3.0,3.0,41,0.00,,,0.00,Wunderground v.1.12,2013-10-21 18:22:00,
2013-10-21 14:27:00,61.7,37.1,30.03,WSW,253,1.0,1.0,40,0.00,,,0.00,Wunderground v.1.12,2013-10-21 18:27:00,
2013-10-21 14:32:00,61.5,36.9,30.03,WSW,255,0.0,3.0,40,0.00,,,0.00,Wunderground v.1.12,2013-10-21 18:32:00,
2013-10-21 14:37:00,61.8,37.8,30.02,SW,228,1.0,3.0,41,0.00,,,0.00,Wunderground v.1.12,2013-10-21 18:37:00,
2013-10-21 14:42:00,62.1,38.7,30.02,SW,231,1.0,3.0,42,0.00,,,0.00,Wunderground v.1.12,2013-10-21 18:42:00,
2013-10-21 14:47:00,62.2,38.8,30.02,WSW,247,0.0,1.0,42,0.00,,,0.00,Wunderground v.1.12,2013-10-21 18:47:00,
2013-10-21 14:52:00,62.4,38.4,30.02,WSW,257,0.0,1.0,41,0.00,,,0.00,Wunderground v.1.12,2013-10-21 18:52:00,
2013-10-21 14:57:00,62.4,39.0,30.02,West,261,0.0,1.0,42,0.00,,,0.00,Wunderground v.1.12,2013-10-21 18:57:00,
2013-10-21 15:02:00,62.5,39.1,30.02,SW,214,1.0,1.0,42,0.00,,,0.00,Wunderground v.1.12,2013-10-21 19:02:00,
2013-10-21 15:07:00,62.6,39.2,30.01,SW,227,0.0,2.0,42,0.00,,,0.00,Wunderground v.1.12,2013-10-21 19:07:00,
2013-10-21 15:12:00,62.6,39.8,30.01,WSW,254,0.0,1.0,43,0.00,,,0.00,Wunderground v.1.12,2013-10-21 19:12:00,
2013-10-21 15:17:00,62.6,38.6,30.01,WSW,241,0.0,1.0,41,0.00,,,0.00,Wunderground v.1.12,2013-10-21 19:17:00,
2013-10-21 15:23:00,62.8,39.4,30.00,WSW,241,0.0,1.0,42,0.00,,,0.00,Wunderground v.1.12,2013-10-21 19:23:00,
2013-10-21 15:28:00,63.2,39.1,30.00,SW,225,1.0,1.0,41,0.00,,,0.00,Wunderground v.1.12,2013-10-21 19:28:00,
2013-10-21 15:33:00,63.2,39.1,30.00,WSW,240,0.0,2.0,41,0.00,,,0.00,Wunderground v.1.12,2013-10-21 19:33:00,
2013-10-21 15:38:00,63.4,39.3,30.00,West,262,0.0,2.0,41,0.00,,,0.00,Wunderground v.1.12,2013-10-21 19:38:00,
2013-10-21 15:43:00,63.5,38.7,30.00,WSW,242,1.0,1.0,40,0.00,,,0.00,Wunderground v.1.12,2013-10-21 19:43:00,
2013-10-21 15:49:00,63.6,38.8,30.00,SW,225,0.0,1.0,40,0.00,,,0.00,Wunderground v.1.12,2013-10-21 19:49:00,
2013-10-21 15:55:00,63.7,39.5,29.99,WSW,245,0.0,1.0,41,0.00,,,0.00,Wunderground v.1.12,2013-10-21 19:55:00,
2013-10-21 16:00:00,63.7,38.9,29.99,WSW,246,0.0,1.0,40,0.00,,,0.00,Wunderground v.1.12,2013-10-21 20:00:00,
2013-10-21 16:05:00,63.7,39.5,29.99,SW,229,0.0,1.0,41,0.00,,,0.00,Wunderground v.1.12,2013-10-21 20:05:00,
2013-10-21 16:10:00,63.3,39.8,29.99,WSW,248,0.0,0.0,42,0.00,,,0.00,Wunderground v.1.12,2013-10-21 20:10:00,
2013-10-21 16:15:00,63.2,39.7,29.99,WSW,252,0.0,1.0,42,0.00,,,0.00,Wunderground v.1.12,2013-10-21 20:15:00,
2013-10-21 16:20:00,62.8,38.7,29.99,WSW,237,0.0,0.0,41,0.00,,,0.00,Wunderground v.1.12,2013-10-21 20:20:00,
2013-10-21 16:25:00,62.6,37.9,29.99,WSW,238,0.0,3.0,40,0.00,,,0.00,Wunderground v.1.12,2013-10-21 20:25:00,
2013-10-21 16:30:00,62.3,38.3,29.99,SSW,202,0.0,2.0,41,0.00,,,0.00,Wunderground v.1.12,2013-10-21 20:30:00,
2013-10-21 16:35:00,62.0,38.6,29.99,WSW,251,0.0,3.0,42,0.00,,,0.00,Wunderground v.1.12,2013-10-21 20:35:00,
2013-10-21 16:40:00,61.8,38.4,29.99,WSW,250,0.0,1.0,42,0.00,,,0.00,Wunderground v.1.12,2013-10-21 20:40:00,
2013-10-21 16:45:00,61.7,39.0,29.99,WSW,249,0.0,0.0,43,0.00,,,0.00,Wunderground v.1.12,2013-10-21 20:45:00,
2013-10-21 16:50:00,61.7,37.7,29.99,SW,228,0.0,0.0,41,0.00,,,0.00,Wunderground v.1.12,2013-10-21 20:50:00,
2013-10-21 16:55:00,61.4,38.1,29.99,SW,229,0.0,0.0,42,0.00,,,0.00,Wunderground v.1.12,2013-10-21 20:55:00,
2013-10-21 17:00:00,61.1,37.8,29.99,WSW,243,0.0,0.0,42,0.00,,,0.00,Wunderground v.1.12,2013-10-21 21:00:00,
2013-10-21 17:05:00,61.1,38.4,29.99,WSW,244,0.0,0.0,43,0.00,,,0.00,Wunderground v.1.12,2013-10-21 21:05:00,
2013-10-21 17:10:00,61.0,38.3,29.99,WSW,254,1.0,1.0,43,0.00,,,0.00,Wunderground v.1.12,2013-10-21 21:10:00,
2013-10-21 17:15:00,60.5,38.5,29.99,WSW,250,0.0,0.0,44,0.00,,,0.00,Wunderground v.1.12,2013-10-21 21:15:00,
2013-10-21 17:20:00,60.3,38.3,30.00,SW,236,0.0,0.0,44,0.00,,,0.00,Wunderground v.1.12,2013-10-21 21:20:00,
2013-10-21 17:26:00,60.1,38.1,30.00,WSW,238,0.0,0.0,44,0.00,,,0.00,Wunderground v.1.12,2013-10-21 21:26:00,
2013-10-21 17:31:00,59.7,38.9,30.00,SW,236,0.0,0.0,46,0.00,,,0.00,Wunderground v.1.12,2013-10-21 21:31:00,
2013-10-21 17:36:00,59.2,38.4,29.99,SW,228,0.0,0.0,46,0.00,,,0.00,Wunderground v.1.12,2013-10-21 21:36:00,
2013-10-21 17:41:00,58.8,39.1,29.99,WSW,239,0.0,0.0,48,0.00,,,0.00,Wunderground v.1.12,2013-10-21 21:41:00,
2013-10-21 17:46:00,58.4,39.3,29.99,WSW,238,0.0,0.0,49,0.00,,,0.00,Wunderground v.1.12,2013-10-21 21:46:00,
2013-10-21 17:51:00,58.1,39.5,30.00,WSW,246,0.0,0.0,50,0.00,,,0.00,Wunderground v.1.12,2013-10-21 21:51:00,
2013-10-21 17:56:00,57.7,38.7,30.00,SW,236,0.0,0.0,49,0.00,,,0.00,Wunderground v.1.12,2013-10-21 21:56:00,
2013-10-21 18:01:00,57.3,38.8,30.00,SW,236,0.0,0.0,50,0.00,,,0.00,Wunderground v.1.12,2013-10-21 22:01:00,
2013-10-21 18:06:00,57.0,39.0,30.00,SW,236,0.0,0.0,51,0.00,,,0.00,Wunderground v.1.12,2013-10-21 22:06:00,
2013-10-21 18:11:00,56.7,38.8,30.00,SW,236,0.0,0.0,51,0.00,,,0.00,Wunderground v.1.12,2013-10-21 22:11:00,
2013-10-21 18:16:00,56.4,39.5,30.00,SW,236,0.0,0.0,53,0.00,,,0.00,Wunderground v.1.12,2013-10-21 22:16:00,
2013-10-21 18:21:00,56.1,39.2,30.00,SW,236,0.0,0.0,53,0.00,,,0.00,Wunderground v.1.12,2013-10-21 22:21:00,
2013-10-21 18:26:00,55.8,39.4,30.00,SW,236,0.0,0.0,54,0.00,,,0.00,Wunderground v.1.12,2013-10-21 22:26:00,
2013-10-21 18:31:00,55.3,38.9,30.00,SW,236,0.0,0.0,54,0.00,,,0.00,Wunderground v.1.12,2013-10-21 22:31:00,
2013-10-21 18:36:00,55.1,38.7,30.01,SW,236,0.0,0.0,54,0.00,,,0.00,Wunderground v.1.12,2013-10-21 22:36:00,
2013-10-21 18:41:00,54.9,39.5,30.01,SW,236,0.0,0.0,56,0.00,,,0.00,Wunderground v.1.12,2013-10-21 22:41:00,
2013-10-21 18:46:00,54.6,39.2,30.01,SW,236,0.0,0.0,56,0.00,,,0.00,Wunderground v.1.12,2013-10-21 22:46:00,
2013-10-21 18:52:00,54.3,38.9,30.01,SW,236,0.0,0.0,56,0.00,,,0.00,Wunderground v.1.12,2013-10-21 22:52:00,
2013-10-21 18:57:00,54.1,39.2,30.01,SW,236,0.0,0.0,57,0.00,,,0.00,Wunderground v.1.12,2013-10-21 22:57:00,
2013-10-21 19:02:00,53.9,39.0,30.01,SW,236,0.0,0.0,57,0.00,,,0.00,Wunderground v.1.12,2013-10-21 23:02:00,
2013-10-21 19:07:00,53.7,38.8,30.01,SW,236,0.0,0.0,57,0.00,,,0.00,Wunderground v.1.12,2013-10-21 23:07:00,
2013-10-21 19:12:00,53.6,38.7,30.01,SW,236,0.0,0.0,57,0.00,,,0.00,Wunderground v.1.12,2013-10-21 23:12:00,
2013-10-21 19:17:00,53.6,38.7,30.01,SW,236,0.0,0.0,57,0.00,,,0.00,Wunderground v.1.12,2013-10-21 23:17:00,
2013-10-21 19:22:00,53.5,39.1,30.01,SW,236,0.0,0.0,58,0.00,,,0.00,Wunderground v.1.12,2013-10-21 23:22:00,
2013-10-21 19:27:00,53.4,38.1,30.01,SW,230,0.0,0.0,56,0.00,,,0.00,Wunderground v.1.12,2013-10-21 23:27:00,
2013-10-21 19:32:00,53.5,38.6,30.01,SW,233,0.0,0.0,57,0.00,,,0.00,Wunderground v.1.12,2013-10-21 23:32:00,
2013-10-21 19:37:00,53.3,38.4,30.01,SW,233,0.0,0.0,57,0.00,,,0.00,Wunderground v.1.12,2013-10-21 23:37:00,
2013-10-21 19:42:00,53.2,38.4,30.01,SW,233,0.0,0.0,57,0.00,,,0.00,Wunderground v.1.12,2013-10-21 23:42:00,
2013-10-21 19:48:00,53.1,38.3,30.01,SW,233,0.0,0.0,57,0.00,,,0.00,Wunderground v.1.12,2013-10-21 23:48:00,
2013-10-21 19:53:00,53.0,38.2,30.01,SW,233,0.0,0.0,57,0.00,,,0.00,Wunderground v.1.12,2013-10-21 23:53:00,
2013-10-21 19:58:00,52.7,37.9,30.01,SW,233,0.0,0.0,57,0.00,,,0.00,Wunderground v.1.12,2013-10-21 23:58:00,
2013-10-21 20:03:00,52.7,37.9,30.01,WSW,248,0.0,0.0,57,0.00,,,0.00,Wunderground v.1.12,2013-10-22 00:03:00,
2013-10-21 20:08:00,52.6,38.2,30.00,WSW,238,0.0,0.0,58,0.00,,,0.00,Wunderground v.1.12,2013-10-22 00:08:00,
2013-10-21 20:14:00,52.6,37.3,30.00,WSW,238,0.0,0.0,56,0.00,,,0.00,Wunderground v.1.12,2013-10-22 00:14:00,
2013-10-21 20:20:00,52.4,37.6,30.00,WSW,238,0.0,0.0,57,0.00,,,0.00,Wunderground v.1.12,2013-10-22 00:20:00,
2013-10-21 20:25:00,52.3,38.0,30.00,WSW,238,0.0,1.0,58,0.00,,,0.00,Wunderground v.1.12,2013-10-22 00:25:00,
2013-10-21 20:30:00,52.4,37.6,30.00,WSW,245,0.0,1.0,57,0.00,,,0.00,Wunderground v.1.12,2013-10-22 00:30:00,
2013-10-21 20:35:00,52.4,37.2,30.00,WSW,242,0.0,1.0,56,0.00,,,0.00,Wunderground v.1.12,2013-10-22 00:35:00,
2013-10-21 20:40:00,52.5,37.2,30.00,WSW,250,0.0,1.0,56,0.00,,,0.00,Wunderground v.1.12,2013-10-22 00:40:00,
2013-10-21 20:45:00,52.5,37.2,30.00,WSW,250,0.0,0.0,56,0.00,,,0.00,Wunderground v.1.12,2013-10-22 00:45:00,
2013-10-21 20:50:00,52.4,37.2,30.00,WSW,247,0.0,0.0,56,0.00,,,0.00,Wunderground v.1.12,2013-10-22 00:50:00,
2013-10-21 20:55:00,52.2,37.0,30.00,WSW,248,0.0,0.0,56,0.00,,,0.00,Wunderground v.1.12,2013-10-22 00:55:00,
2013-10-21 21:00:00,52.1,36.9,30.00,WSW,240,0.0,1.0,56,0.00,,,0.00,Wunderground v.1.12,2013-10-22 01:00:00,
2013-10-21 21:05:00,51.9,37.1,30.00,WSW,253,0.0,1.0,57,0.00,,,0.00,Wunderground v.1.12,2013-10-22 01:05:00,
2013-10-21 21:10:00,51.8,37.0,30.00,WSW,251,0.0,1.0,57,0.00,,,0.00,Wunderground v.1.12,2013-10-22 01:10:00,
2013-10-21 21:15:00,51.9,37.1,30.00,WSW,252,0.0,0.0,57,0.00,,,0.00,Wunderground v.1.12,2013-10-22 01:15:00,
2013-10-21 21:20:00,51.8,37.5,30.00,West,261,0.0,0.0,58,0.00,,,0.00,Wunderground v.1.12,2013-10-22 01:20:00,
2013-10-21 21:25:00,51.8,37.9,30.00,WSW,256,0.0,0.0,59,0.00,,,0.00,Wunderground v.1.12,2013-10-22 01:25:00,
2013-10-21 21:30:00,51.9,38.4,30.00,WSW,239,0.0,0.0,60,0.00,,,0.00,Wunderground v.1.12,2013-10-22 01:30:00,
2013-10-21 21:35:00,51.8,38.8,30.00,WSW,252,0.0,0.0,61,0.00,,,0.00,Wunderground v.1.12,2013-10-22 01:35:00,
2013-10-21 21:40:00,51.6,38.6,30.00,WSW,244,0.0,0.0,61,0.00,,,0.00,Wunderground v.1.12,2013-10-22 01:40:00,
2013-10-21 21:45:00,51.4,38.8,30.00,WSW,253,0.0,0.0,62,0.00,,,0.00,Wunderground v.1.12,2013-10-22 01:45:00,
2013-10-21 21:51:00,51.3,38.7,30.00,WSW,251,0.0,0.0,62,0.00,,,0.00,Wunderground v.1.12,2013-10-22 01:51:00,
2013-10-21 21:54:00,51.1,38.9,30.00,WSW,251,0.0,0.0,63,0.00,,,0.00,Wunderground v.1.12,2013-10-22 01:54:00,
2013-10-21 22:00:00,50.8,39.1,30.00,WSW,251,0.0,0.0,64,0.00,,,0.00,Wunderground v.1.12,2013-10-22 02:00:00,
2013-10-21 22:05:00,50.6,39.3,30.00,WSW,240,0.0,1.0,65,0.00,,,0.00,Wunderground v.1.12,2013-10-22 02:05:00,
2013-10-21 22:10:00,50.5,39.6,29.99,WSW,240,0.0,0.0,66,0.00,,,0.00,Wunderground v.1.12,2013-10-22 02:10:00,
2013-10-21 22:15:00,50.6,40.0,29.99,WSW,239,0.0,1.0,67,0.00,,,0.00,Wunderground v.1.12,2013-10-22 02:15:00,
2013-10-21 22:20:00,50.6,40.4,29.99,WSW,251,0.0,1.0,68,0.00,,,0.00,Wunderground v.1.12,2013-10-22 02:20:00,
2013-10-21 22:25:00,50.6,40.8,29.98,WSW,251,0.0,0.0,69,0.00,,,0.00,Wunderground v.1.12,2013-10-22 02:25:00,
2013-10-21 22:30:00,50.6,40.8,29.98,WSW,251,0.0,0.0,69,0.00,,,0.00,Wunderground v.1.12,2013-10-22 02:30:00,
2013-10-21 22:35:00,50.5,41.1,29.98,WSW,251,0.0,0.0,70,0.00,,,0.00,Wunderground v.1.12,2013-10-22 02:35:00,
2013-10-21 22:40:00,50.4,41.3,29.98,WSW,240,0.0,0.0,71,0.00,,,0.00,Wunderground v.1.12,2013-10-22 02:40:00,
2013-10-21 22:45:00,50.3,41.6,29.98,SW,236,0.0,0.0,72,0.00,,,0.00,Wunderground v.1.12,2013-10-22 02:45:00,
2013-10-21 22:50:00,50.4,41.7,29.97,WSW,244,0.0,0.0,72,0.00,,,0.00,Wunderground v.1.12,2013-10-22 02:50:00,
2013-10-21 22:55:00,50.3,42.3,29.97,WSW,238,0.0,0.0,74,0.00,,,0.00,Wunderground v.1.12,2013-10-22 02:55:00,
2013-10-21 23:00:00,50.2,42.2,29.97,WSW,248,0.0,0.0,74,0.00,,,0.00,Wunderground v.1.12,2013-10-22 03:00:00,
2013-10-21 23:05:00,50.0,42.4,29.96,WSW,248,0.0,0.0,75,0.00,,,0.00,Wunderground v.1.12,2013-10-22 03:05:00,
2013-10-21 23:11:00,49.9,42.6,29.96,WSW,248,0.0,0.0,76,0.00,,,0.00,Wunderground v.1.12,2013-10-22 03:11:00,
2013-10-21 23:16:00,49.8,42.5,29.96,WSW,257,0.0,0.0,76,0.00,,,0.00,Wunderground v.1.12,2013-10-22 03:16:00,
2013-10-21 23:21:00,49.8,42.9,29.96,West,259,0.0,0.0,77,0.00,,,0.00,Wunderground v.1.12,2013-10-22 03:21:00,
2013-10-21 23:26:00,49.9,43.0,29.96,WSW,249,0.0,0.0,77,0.00,,,0.00,Wunderground v.1.12,2013-10-22 03:26:00,
2013-10-21 23:31:00,49.8,43.2,29.96,WSW,249,0.0,0.0,78,0.00,,,0.00,Wunderground v.1.12,2013-10-22 03:31:00,
2013-10-21 23:36:00,49.7,43.5,29.95,WSW,251,0.0,1.0,79,0.00,,,0.00,Wunderground v.1.12,2013-10-22 03:36:00,
2013-10-21 23:41:00,49.8,43.5,29.95,WSW,249,0.0,0.0,79,0.00,,,0.00,Wunderground v.1.12,2013-10-22 03:41:00,
2013-10-21 23:46:00,49.8,43.5,29.95,WSW,237,0.0,0.0,79,0.00,,,0.00,Wunderground v.1.12,2013-10-22 03:46:00,
2013-10-21 23:51:00,49.9,43.6,29.95,South,190,2.0,2.0,79,0.00,,,0.00,Wunderground v.1.12,2013-10-22 03:51:00,
2013-10-21 23:56:00,49.7,43.5,29.95,SW,232,0.0,1.0,79,0.00,,,0.00,Wunderground v.1.12,2013-10-22 03:56:00,